Time;durP1;ratioP1;P1;durP2;ratioP2;P2;SDS_P1;SDS_P2;PMS_P1;PMS_P2;Temp;Humidity;BMP_temperature;BMP_pressure;BME280_temperature;BME280_humidity;BME280_pressure;Samples;Min_cycle;Max_cycle;Signal;HPM_P1;HPM_P2
2022/12/24 00:01:40;;;;;;;0.40;0.40;;;14.80;91.90;;;;;;5073155;28;20206;-69
2022/12/24 00:04:28;;;;;;;0.97;0.97;;;14.80;91.90;;;;;;5073178;28;20308;-69
2022/12/24 00:07:18;;;;;;;0.40;0.40;;;14.80;91.90;;;;;;5072305;28;20691;-68
2022/12/24 00:10:07;;;;;;;0.40;0.40;;;14.80;91.90;;;;;;5071849;28;20206;-68
2022/12/24 00:12:56;;;;;;;0.40;0.40;;;14.80;91.90;;;;;;5073081;28;20234;-68
2022/12/24 00:15:44;;;;;;;0.40;0.40;;;14.70;91.90;;;;;;5073806;28;20227;-69
2022/12/24 00:18:32;;;;;;;0.40;0.40;;;14.80;92.00;;;;;;5072118;28;20201;-68
2022/12/24 00:21:20;;;;;;;0.40;0.40;;;14.70;91.90;;;;;;5072566;28;20673;-68
2022/12/24 00:24:09;;;;;;;0.40;0.40;;;14.70;91.90;;;;;;5073104;28;20719;-69
2022/12/24 00:26:57;;;;;;;0.40;0.40;;;14.70;91.90;;;;;;5073327;28;20286;-71
2022/12/24 00:29:45;;;;;;;0.40;0.40;;;14.70;92.00;;;;;;5072652;28;20275;-70
2022/12/24 00:32:33;;;;;;;0.40;0.40;;;14.80;92.00;;;;;;5073602;28;20201;-68
2022/12/24 00:35:22;;;;;;;0.40;0.40;;;14.80;92.00;;;;;;5075693;28;20689;-69
2022/12/24 00:38:10;;;;;;;0.40;0.40;;;14.70;92.30;;;;;;5076566;28;20209;-69
2022/12/24 00:41:00;;;;;;;0.40;0.40;;;14.80;92.30;;;;;;5076420;28;20628;-69
2022/12/24 00:43:48;;;;;;;0.50;0.50;;;14.80;91.90;;;;;;5076012;28;20453;-69
2022/12/24 00:46:38;;;;;;;0.40;0.40;;;14.80;92.00;;;;;;5077285;28;20286;-69
2022/12/24 00:49:26;;;;;;;0.40;0.40;;;14.80;91.90;;;;;;5075532;28;20197;-69
2022/12/24 00:52:14;;;;;;;0.40;0.40;;;14.80;91.90;;;;;;5076038;28;20636;-69
2022/12/24 00:55:03;;;;;;;0.40;0.40;;;14.80;91.90;;;;;;5075865;28;20225;-69
2022/12/24 00:57:52;;;;;;;0.40;0.40;;;14.80;91.90;;;;;;5076351;28;20215;-68
2022/12/24 01:00:40;;;;;;;0.40;0.40;;;14.80;91.80;;;;;;5075593;28;20684;-69
2022/12/24 01:03:34;;;;;;;0.40;0.40;;;14.80;91.90;;;;;;5075538;28;20518;-68
2022/12/24 01:06:21;;;;;;;0.60;0.60;;;14.80;91.80;;;;;;5076055;28;20197;-69
2022/12/24 01:09:10;;;;;;;0.40;0.40;;;14.80;91.90;;;;;;5075461;28;20282;-68
2022/12/24 01:11:58;;;;;;;0.40;0.40;;;14.80;91.90;;;;;;5076049;28;20291;-69
2022/12/24 01:14:47;;;;;;;0.40;0.40;;;14.80;91.90;;;;;;5076095;28;20585;-69
2022/12/24 01:17:36;;;;;;;0.40;0.40;;;14.80;91.80;;;;;;5076039;28;20211;-69
2022/12/24 01:20:25;;;;;;;0.40;0.40;;;14.80;91.80;;;;;;5075112;28;20693;-69
2022/12/24 01:23:14;;;;;;;0.40;0.40;;;14.40;91.40;;;;;;5075455;28;20799;-69
2022/12/24 01:26:04;;;;;;;0.40;0.40;;;14.80;91.90;;;;;;5076181;28;20200;-68
2022/12/24 01:28:53;;;;;;;0.40;0.40;;;14.80;91.80;;;;;;5075592;28;20431;-68
2022/12/24 01:31:42;;;;;;;0.40;0.40;;;14.80;91.80;;;;;;5075442;28;20509;-70
2022/12/24 01:34:30;;;;;;;0.40;0.40;;;14.80;91.90;;;;;;5075185;28;20221;-69
2022/12/24 01:37:18;;;;;;;0.40;0.40;;;14.70;91.80;;;;;;5075978;28;20669;-69
2022/12/24 01:43:23;;;;;;;0.50;0.50;;;14.70;91.70;;;;;;5075512;28;20526;-69
2022/12/24 01:46:16;;;;;;;0.40;0.40;;;14.70;91.90;;;;;;5074975;28;20188;-68
2022/12/24 01:49:06;;;;;;;1.07;1.07;;;14.70;91.80;;;;;;5075411;28;20211;-69
2022/12/24 01:51:57;;;;;;;0.40;0.40;;;14.70;91.80;;;;;;5075062;28;20205;-69
2022/12/24 01:54:49;;;;;;;0.40;0.40;;;14.70;91.90;;;;;;5075618;28;20217;-69
2022/12/24 01:57:41;;;;;;;0.40;0.40;;;14.70;91.90;;;;;;5075468;28;20279;-69
2022/12/24 02:00:29;;;;;;;0.40;0.40;;;14.70;92.00;;;;;;5074561;28;20697;-69
2022/12/24 02:03:18;;;;;;;0.40;0.40;;;14.70;91.70;;;;;;5075582;28;20197;-69
2022/12/24 02:06:11;;;;;;;0.40;0.40;;;14.70;91.90;;;;;;5075058;28;20197;-69
2022/12/24 02:08:59;;;;;;;0.40;0.40;;;14.70;91.90;;;;;;5074394;28;20205;-69
2022/12/24 02:11:47;;;;;;;0.40;0.40;;;14.80;91.90;;;;;;5075141;28;20204;-69
2022/12/24 02:14:36;;;;;;;0.40;0.40;;;14.80;91.90;;;;;;5075290;28;20217;-69
2022/12/24 02:17:31;;;;;;;0.40;0.40;;;14.80;91.90;;;;;;5074595;28;20669;-68
2022/12/24 02:20:46;;;;;;;0.47;0.47;;;14.80;91.90;;;;;;5075838;28;20203;-69
2022/12/24 02:24:02;;;;;;;0.40;0.40;;;14.80;91.90;;;;;;5074595;28;20225;-69
2022/12/24 02:27:07;;;;;;;0.40;0.40;;;14.80;91.90;;;;;;5075479;28;20199;-69
2022/12/24 02:30:05;;;;;;;0.40;0.40;;;14.80;91.80;;;;;;5073572;28;20275;-69
2022/12/24 02:33:13;;;;;;;0.40;0.40;;;14.80;91.80;;;;;;5075488;28;20674;-69
2022/12/24 02:36:09;;;;;;;0.40;0.40;;;14.80;91.80;;;;;;5073817;28;20246;-69
2022/12/24 02:39:02;;;;;;;0.40;0.40;;;14.80;91.80;;;;;;5074822;28;20307;-69
2022/12/24 02:42:07;;;;;;;0.40;0.40;;;14.80;91.80;;;;;;5074127;28;20431;-69
2022/12/24 02:44:59;;;;;;;0.40;0.40;;;14.70;91.90;;;;;;5074269;28;20451;-69
2022/12/24 02:47:50;;;;;;;0.40;0.40;;;14.80;91.80;;;;;;5074014;28;20275;-68
2022/12/24 02:50:38;;;;;;;0.40;0.40;;;14.70;91.70;;;;;;5073186;28;20354;-68
2022/12/24 02:53:26;;;;;;;1.13;1.13;;;14.70;91.80;;;;;;5073898;28;20637;-68
2022/12/24 02:56:32;;;;;;;0.40;0.40;;;14.80;91.80;;;;;;5072817;28;20299;-69
2022/12/24 02:59:57;;;;;;;0.40;0.40;;;14.70;91.80;;;;;;5069509;28;20203;-69
2022/12/24 03:03:07;;;;;;;0.40;0.40;;;14.70;91.70;;;;;;5018234;28;20293;-68
2022/12/24 03:06:03;;;;;;;0.40;0.40;;;14.70;91.80;;;;;;5054379;28;20204;-69
2022/12/24 03:08:54;;;;;;;0.40;0.40;;;14.70;91.80;;;;;;5053956;28;20248;-68
2022/12/24 03:11:48;;;;;;;0.40;0.40;;;14.70;91.80;;;;;;5054405;28;20193;-67
2022/12/24 03:14:38;;;;;;;0.40;0.40;;;14.70;91.80;;;;;;5053489;28;20312;-67
2022/12/24 03:17:27;;;;;;;0.40;0.40;;;14.70;91.80;;;;;;5053748;28;20221;-69
2022/12/24 03:20:20;;;;;;;0.40;0.40;;;14.70;91.80;;;;;;5054616;28;20205;-68
2022/12/24 03:23:08;;;;;;;0.40;0.40;;;14.70;91.70;;;;;;5053781;28;20642;-68
2022/12/24 03:25:59;;;;;;;0.40;0.40;;;14.70;91.90;;;;;;5053987;28;20908;-68
2022/12/24 03:28:48;;;;;;;0.40;0.40;;;14.70;91.90;;;;;;5052972;28;20197;-69
2022/12/24 03:31:43;;;;;;;0.40;0.40;;;14.70;91.90;;;;;;5053501;28;20193;-69
2022/12/24 03:34:32;;;;;;;0.40;0.40;;;14.70;91.90;;;;;;5054667;28;20328;-68
2022/12/24 03:37:21;;;;;;;0.40;0.40;;;14.80;91.90;;;;;;5053976;28;20231;-69
2022/12/24 03:40:10;;;;;;;0.40;0.40;;;14.70;91.80;;;;;;5054225;28;20284;-69
2022/12/24 03:42:58;;;;;;;0.40;0.40;;;14.80;91.90;;;;;;5054192;28;20197;-69
2022/12/24 03:45:46;;;;;;;0.40;0.40;;;14.80;91.90;;;;;;5052451;28;20275;-68
2022/12/24 03:48:35;;;;;;;0.40;0.40;;;14.80;91.90;;;;;;5054889;28;20554;-68
2022/12/24 03:51:25;;;;;;;0.40;0.40;;;14.80;91.80;;;;;;5053487;28;20252;-69
2022/12/24 03:54:14;;;;;;;0.40;0.40;;;14.80;91.80;;;;;;5053220;28;20299;-69
2022/12/24 03:57:02;;;;;;;0.40;0.40;;;14.70;91.80;;;;;;5052777;28;20304;-68
2022/12/24 03:59:50;;;;;;;0.40;0.40;;;14.80;91.80;;;;;;5053099;28;20288;-68
2022/12/24 04:02:38;;;;;;;0.40;0.40;;;14.80;91.80;;;;;;5053015;28;20661;-68
2022/12/24 04:05:27;;;;;;;0.40;0.40;;;14.80;91.80;;;;;;5052968;28;20291;-69
2022/12/24 04:08:15;;;;;;;0.40;0.40;;;14.80;91.80;;;;;;5052985;28;20276;-69
2022/12/24 04:11:07;;;;;;;0.40;0.40;;;14.80;91.80;;;;;;5052641;28;20212;-68
2022/12/24 04:13:57;;;;;;;0.47;0.47;;;14.80;91.80;;;;;;5053097;28;20221;-68
2022/12/24 04:16:45;;;;;;;0.40;0.40;;;14.80;91.80;;;;;;5052359;28;20248;-69
2022/12/24 04:19:33;;;;;;;0.40;0.40;;;14.80;91.80;;;;;;5053626;28;20670;-69
2022/12/24 04:22:21;;;;;;;0.40;0.40;;;14.80;91.80;;;;;;5054064;28;20717;-68
2022/12/24 04:25:10;;;;;;;0.40;0.40;;;14.70;91.50;;;;;;5089308;22;20244;-63
2022/12/24 04:27:59;;;;;;;0.40;0.40;;;14.70;91.80;;;;;;5072925;28;20512;-64
2022/12/24 04:30:47;;;;;;;0.40;0.40;;;14.70;91.80;;;;;;5072249;28;20646;-63
2022/12/24 04:33:36;;;;;;;0.40;0.40;;;14.70;91.80;;;;;;5070520;28;20325;-63
2022/12/24 04:36:24;;;;;;;0.40;0.40;;;16.10;92.50;;;;;;5071615;28;20462;-63
2022/12/24 04:39:12;;;;;;;0.40;0.40;;;14.70;91.90;;;;;;5072626;28;20200;-64
2022/12/24 04:42:00;;;;;;;0.40;0.40;;;14.70;92.20;;;;;;5073158;28;20287;-63
2022/12/24 04:44:50;;;;;;;0.40;0.40;;;14.70;91.90;;;;;;5072537;28;20299;-63
2022/12/24 04:47:38;;;;;;;0.40;0.40;;;14.60;91.80;;;;;;5073214;28;20904;-63
2022/12/24 04:50:26;;;;;;;0.40;0.40;;;14.70;91.90;;;;;;5070957;28;20289;-63
2022/12/24 04:53:14;;;;;;;1.87;1.77;;;14.70;91.90;;;;;;5072693;28;20286;-63
2022/12/24 04:56:03;;;;;;;0.40;0.40;;;14.70;91.90;;;;;;5072489;28;20205;-63
2022/12/24 04:58:51;;;;;;;0.40;0.40;;;16.20;92.60;;;;;;5065422;28;20665;-63
2022/12/24 05:01:40;;;;;;;1.67;1.67;;;14.70;91.90;;;;;;5051846;28;20428;-63
2022/12/24 05:04:28;;;;;;;0.40;0.40;;;14.70;91.90;;;;;;5051703;28;20224;-63
2022/12/24 05:07:16;;;;;;;0.40;0.40;;;14.60;91.90;;;;;;5051743;28;20331;-63
2022/12/24 05:10:06;;;;;;;0.40;0.40;;;14.70;92.00;;;;;;5050583;28;20240;-63
2022/12/24 05:12:54;;;;;;;0.40;0.40;;;14.70;91.90;;;;;;5051760;28;20443;-65
2022/12/24 05:15:44;;;;;;;0.40;0.40;;;14.60;91.90;;;;;;5051770;28;20724;-63
2022/12/24 05:18:33;;;;;;;0.40;0.40;;;14.70;92.00;;;;;;5052642;28;20497;-63
2022/12/24 05:21:23;;;;;;;0.40;0.40;;;14.70;91.90;;;;;;5055118;28;20324;-63
2022/12/24 05:27:17;;;;;;;0.40;0.40;;;14.70;91.90;;;;;;5055347;28;20205;-63
2022/12/24 05:30:07;;;;;;;0.43;0.43;;;14.70;91.90;;;;;;5055049;28;20679;-63
2022/12/24 05:32:55;;;;;;;0.40;0.40;;;14.70;91.80;;;;;;5055962;28;20490;-63
2022/12/24 05:35:44;;;;;;;0.40;0.40;;;14.70;91.80;;;;;;5055157;28;20225;-63
2022/12/24 05:38:32;;;;;;;0.40;0.40;;;14.70;91.90;;;;;;5054731;28;20602;-65
2022/12/24 05:41:20;;;;;;;0.40;0.40;;;14.70;91.80;;;;;;5054209;28;20968;-66
2022/12/24 05:44:08;;;;;;;0.40;0.40;;;14.60;91.80;;;;;;5054973;28;20217;-65
2022/12/24 05:46:56;;;;;;;0.40;0.40;;;14.60;91.80;;;;;;5054356;28;20225;-65
2022/12/24 05:49:44;;;;;;;0.40;0.40;;;14.70;91.90;;;;;;5054117;28;20511;-66
2022/12/24 05:52:33;;;;;;;0.40;0.40;;;14.70;91.90;;;;;;5054340;28;20551;-66
2022/12/24 05:55:21;;;;;;;0.40;0.40;;;14.60;91.80;;;;;;5053963;28;20498;-65
2022/12/24 05:58:09;;;;;;;0.40;0.40;;;14.60;91.80;;;;;;5054405;28;20224;-66
2022/12/24 06:00:58;;;;;;;0.40;0.40;;;14.70;91.90;;;;;;5054261;28;20677;-65
2022/12/24 06:03:48;;;;;;;0.40;0.40;;;14.70;91.90;;;;;;5053832;28;20386;-65
2022/12/24 06:06:36;;;;;;;0.40;0.40;;;14.70;91.90;;;;;;5054324;28;20328;-66
2022/12/24 06:09:25;;;;;;;0.40;0.40;;;14.70;91.80;;;;;;5053865;28;20205;-66
2022/12/24 06:12:13;;;;;;;0.40;0.40;;;14.70;91.80;;;;;;5054168;28;20283;-65
2022/12/24 06:15:01;;;;;;;0.40;0.40;;;14.70;91.80;;;;;;5053930;28;20229;-66
2022/12/24 06:17:49;;;;;;;0.40;0.40;;;14.70;91.80;;;;;;5053891;28;20224;-65
2022/12/24 06:20:37;;;;;;;0.40;0.40;;;14.70;91.80;;;;;;5053647;28;20424;-65
2022/12/24 06:23:28;;;;;;;0.40;0.40;;;14.60;91.80;;;;;;5054514;28;20511;-66
2022/12/24 06:26:21;;;;;;;0.40;0.40;;;14.70;91.90;;;;;;5054142;28;20294;-66
2022/12/24 06:29:10;;;;;;;0.40;0.40;;;14.70;91.90;;;;;;5053664;28;20200;-65
2022/12/24 06:31:58;;;;;;;0.40;0.40;;;14.70;91.90;;;;;;5053897;28;20205;-66
2022/12/24 06:34:46;;;;;;;0.40;0.40;;;14.70;91.90;;;;;;5054030;28;20221;-65
2022/12/24 06:37:34;;;;;;;0.40;0.40;;;14.70;91.90;;;;;;5052909;28;20641;-66
2022/12/24 06:40:22;;;;;;;0.40;0.40;;;14.60;91.90;;;;;;5053267;28;20421;-65
2022/12/24 06:43:13;;;;;;;0.40;0.40;;;14.60;91.90;;;;;;5053509;28;20307;-66
2022/12/24 06:46:02;;;;;;;0.40;0.40;;;14.70;92.00;;;;;;5053516;28;20919;-65
2022/12/24 06:48:50;;;;;;;0.40;0.40;;;14.60;91.90;;;;;;5053396;28;20666;-65
2022/12/24 06:51:38;;;;;;;0.40;0.40;;;14.60;91.90;;;;;;5053223;28;20232;-66
2022/12/24 06:54:26;;;;;;;0.40;0.40;;;14.60;92.20;;;;;;5053424;28;20219;-65
2022/12/24 06:57:14;;;;;;;0.40;0.40;;;14.70;92.00;;;;;;5053564;28;20279;-65
2022/12/24 07:00:05;;;;;;;0.40;0.40;;;14.70;92.30;;;;;;5052915;28;20197;-66
2022/12/24 07:02:53;;;;;;;0.40;0.40;;;14.60;91.90;;;;;;5053397;28;20623;-66
2022/12/24 07:05:41;;;;;;;0.40;0.40;;;14.60;91.90;;;;;;5053145;28;20225;-65
2022/12/24 07:08:32;;;;;;;0.40;0.40;;;14.60;91.90;;;;;;5052245;28;20535;-65
2022/12/24 07:11:21;;;;;;;0.40;0.40;;;14.60;91.90;;;;;;5052846;28;20682;-66
2022/12/24 07:14:09;;;;;;;0.40;0.40;;;14.60;91.90;;;;;;5053080;28;20436;-65
2022/12/24 07:16:59;;;;;;;0.40;0.40;;;14.60;91.90;;;;;;5053010;28;20620;-65
2022/12/24 07:19:47;;;;;;;0.40;0.40;;;14.60;92.00;;;;;;5052360;28;20568;-65
2022/12/24 07:22:35;;;;;;;0.40;0.40;;;14.60;91.90;;;;;;5052984;28;20205;-65
2022/12/24 07:25:23;;;;;;;0.40;0.40;;;14.60;91.90;;;;;;5052696;28;20323;-65
2022/12/24 07:28:11;;;;;;;0.40;0.40;;;14.70;92.00;;;;;;5052551;28;20678;-66
2022/12/24 07:31:00;;;;;;;0.40;0.40;;;14.70;92.00;;;;;;5052639;28;20285;-66
2022/12/24 07:33:49;;;;;;;0.40;0.40;;;14.80;92.00;;;;;;5052447;28;20225;-65
2022/12/24 07:36:37;;;;;;;0.40;0.40;;;14.60;91.90;;;;;;5052464;28;20201;-66
2022/12/24 07:39:25;;;;;;;0.40;0.40;;;14.70;91.90;;;;;;5052039;28;20277;-66
2022/12/24 07:42:13;;;;;;;0.40;0.40;;;14.80;91.90;;;;;;5052015;28;20284;-66
2022/12/24 07:45:01;;;;;;;0.40;0.40;;;14.80;91.90;;;;;;5053163;28;20224;-66
2022/12/24 07:47:50;;;;;;;1.47;1.47;;;14.90;91.90;;;;;;5052522;28;20737;-66
2022/12/24 07:50:39;;;;;;;0.40;0.40;;;14.80;91.80;;;;;;5052417;28;21008;-65
2022/12/24 07:53:28;;;;;;;0.40;0.40;;;14.70;91.80;;;;;;5052361;28;20211;-65
2022/12/24 07:56:17;;;;;;;0.40;0.40;;;14.80;91.80;;;;;;5052624;28;20685;-66
2022/12/24 07:59:05;;;;;;;0.40;0.40;;;14.80;91.80;;;;;;5051916;28;20415;-66
2022/12/24 08:01:53;;;;;;;0.40;0.40;;;14.80;91.80;;;;;;5053243;28;20202;-65
2022/12/24 08:04:41;;;;;;;0.40;0.40;;;14.80;91.80;;;;;;5051663;28;20247;-66
2022/12/24 08:07:31;;;;;;;0.40;0.40;;;14.80;91.70;;;;;;5052992;28;20252;-66
2022/12/24 08:10:19;;;;;;;0.50;0.50;;;14.70;91.70;;;;;;5051619;28;20697;-66
2022/12/24 08:13:07;;;;;;;0.40;0.40;;;14.80;91.70;;;;;;5052508;28;20343;-66
2022/12/24 08:15:55;;;;;;;0.40;0.40;;;14.80;91.80;;;;;;5052287;28;20268;-65
2022/12/24 08:18:43;;;;;;;0.40;0.40;;;14.90;91.90;;;;;;5052005;28;20475;-66
2022/12/24 08:21:31;;;;;;;0.40;0.40;;;14.70;91.70;;;;;;5051903;28;20690;-66
2022/12/24 08:24:21;;;;;;;0.40;0.40;;;14.80;91.80;;;;;;5051803;28;20608;-66
2022/12/24 08:27:09;;;;;;;0.40;0.40;;;14.80;91.80;;;;;;5051878;28;20288;-66
2022/12/24 08:29:57;;;;;;;0.40;0.40;;;14.80;91.80;;;;;;5050920;28;20294;-66
2022/12/24 08:32:45;;;;;;;0.40;0.40;;;14.70;91.80;;;;;;5051949;28;20955;-66
2022/12/24 08:35:33;;;;;;;0.50;0.50;;;14.90;91.90;;;;;;5051822;28;20694;-66
2022/12/24 08:38:21;;;;;;;0.40;0.40;;;14.70;91.80;;;;;;5051778;28;20294;-66
2022/12/24 08:41:11;;;;;;;0.40;0.40;;;14.80;91.80;;;;;;5050214;28;20660;-66
2022/12/24 08:43:59;;;;;;;0.40;0.40;;;14.70;91.80;;;;;;5051560;28;20338;-66
2022/12/24 08:46:47;;;;;;;0.40;0.40;;;14.80;91.90;;;;;;5052215;28;20224;-65
2022/12/24 08:49:35;;;;;;;0.40;0.40;;;14.70;91.80;;;;;;5051586;28;20681;-65
2022/12/24 08:52:23;;;;;;;0.40;0.40;;;14.70;91.80;;;;;;5051939;28;20292;-65
2022/12/24 08:55:11;;;;;;;0.40;0.40;;;14.80;91.90;;;;;;5055502;28;20251;-65
2022/12/24 08:58:01;;;;;;;0.40;0.40;;;14.80;91.80;;;;;;5055844;28;20240;-65
2022/12/24 09:00:49;;;;;;;0.40;0.40;;;14.70;91.80;;;;;;5055271;28;20201;-65
2022/12/24 09:03:38;;;;;;;4.10;3.90;;;14.70;91.60;;;;;;5056154;28;20952;-66
2022/12/24 09:06:26;;;;;;;0.40;0.40;;;14.80;91.90;;;;;;5056613;28;20201;-68
2022/12/24 09:09:14;;;;;;;0.40;0.40;;;14.80;91.90;;;;;;5056381;28;20250;-65
2022/12/24 09:12:05;;;;;;;0.40;0.40;;;14.80;91.90;;;;;;5055691;28;20282;-64
2022/12/24 09:14:54;;;;;;;0.40;0.40;;;14.80;91.80;;;;;;5055538;28;20217;-65
2022/12/24 09:17:50;;;;;;;0.40;0.40;;;14.80;91.90;;;;;;5055488;28;20424;-65
2022/12/24 09:20:38;;;;;;;0.40;0.40;;;14.70;91.90;;;;;;5054319;28;20244;-65
2022/12/24 09:23:38;;;;;;;0.40;0.40;;;14.70;92.00;;;;;;5053944;28;20209;-65
2022/12/24 09:26:28;;;;;;;0.40;0.40;;;14.70;92.00;;;;;;5054079;28;20423;-65
2022/12/24 09:29:16;;;;;;;0.40;0.40;;;14.80;92.00;;;;;;5055050;28;20208;-65
2022/12/24 09:32:06;;;;;;;0.40;0.40;;;14.70;92.00;;;;;;5055058;28;20206;-65
2022/12/24 09:34:54;;;;;;;0.40;0.40;;;14.70;92.00;;;;;;5055307;28;20229;-65
2022/12/24 09:37:42;;;;;;;0.40;0.40;;;14.70;92.10;;;;;;5054610;28;20229;-65
2022/12/24 09:40:37;;;;;;;0.40;0.40;;;14.70;92.00;;;;;;5054361;28;20221;-65
2022/12/24 09:43:27;;;;;;;0.40;0.40;;;14.70;92.00;;;;;;5055315;28;20197;-65
2022/12/24 09:46:22;;;;;;;0.40;0.40;;;14.70;92.00;;;;;;5054980;28;20287;-66
2022/12/24 09:49:17;;;;;;;0.40;0.40;;;14.70;92.00;;;;;;5055164;28;20280;-65
2022/12/24 09:52:08;;;;;;;0.40;0.40;;;14.80;92.20;;;;;;5054746;28;20209;-65
2022/12/24 09:55:04;;;;;;;0.40;0.40;;;14.70;92.20;;;;;;5054686;28;20582;-65
2022/12/24 09:57:54;;;;;;;0.40;0.40;;;14.70;92.10;;;;;;5054362;28;20619;-66
2022/12/24 10:00:42;;;;;;;0.40;0.40;;;14.70;92.20;;;;;;5054211;28;20308;-65
2022/12/24 10:03:37;;;;;;;0.40;0.40;;;14.70;92.10;;;;;;5055041;28;20197;-65
2022/12/24 10:06:32;;;;;;;0.40;0.40;;;14.70;92.30;;;;;;5054428;28;20205;-66
2022/12/24 10:09:28;;;;;;;0.40;0.40;;;14.70;92.20;;;;;;5054040;28;20271;-65
2022/12/24 10:12:23;;;;;;;0.40;0.40;;;14.70;92.30;;;;;;5052277;28;20274;-65
2022/12/24 10:15:19;;;;;;;0.40;0.40;;;14.70;92.30;;;;;;5054578;28;20332;-65
2022/12/24 10:18:19;;;;;;;0.40;0.40;;;14.70;92.20;;;;;;5054406;28;20259;-65
2022/12/24 10:21:14;;;;;;;0.40;0.40;;;14.80;92.30;;;;;;5053794;28;20359;-65
2022/12/24 10:24:10;;;;;;;0.40;0.40;;;14.80;92.00;;;;;;5054305;28;20236;-65
2022/12/24 10:27:02;;;;;;;0.40;0.40;;;14.80;92.20;;;;;;5054376;28;20991;-66
2022/12/24 10:29:57;;;;;;;0.40;0.40;;;14.80;92.10;;;;;;5053634;28;20451;-66
2022/12/24 10:32:47;;;;;;;0.40;0.40;;;14.80;92.30;;;;;;5053934;28;20281;-66
2022/12/24 10:35:43;;;;;;;0.40;0.40;;;14.80;92.20;;;;;;5054079;28;20728;-66
2022/12/24 10:38:32;;;;;;;0.40;0.40;;;14.70;92.20;;;;;;5054022;28;20228;-65
2022/12/24 10:41:25;;;;;;;0.40;0.40;;;14.70;92.30;;;;;;5054229;28;20254;-66
2022/12/24 10:44:17;;;;;;;0.40;0.40;;;14.70;92.30;;;;;;5054619;28;20217;-65
2022/12/24 10:47:07;;;;;;;0.40;0.40;;;14.70;92.30;;;;;;5054187;28;20944;-66
2022/12/24 10:50:02;;;;;;;0.40;0.40;;;14.80;92.20;;;;;;5053473;28;20223;-66
2022/12/24 10:52:53;;;;;;;0.40;0.40;;;14.80;92.40;;;;;;5052688;28;20204;-66
2022/12/24 10:55:41;;;;;;;0.40;0.40;;;14.80;92.30;;;;;;5054434;28;20221;-66
2022/12/24 10:58:31;;;;;;;0.40;0.40;;;14.70;92.30;;;;;;5052416;28;20416;-66
2022/12/24 11:01:20;;;;;;;0.40;0.40;;;14.70;92.20;;;;;;5053381;28;20280;-66
2022/12/24 11:04:16;;;;;;;0.40;0.40;;;14.70;92.30;;;;;;5053293;28;20304;-66
2022/12/24 11:07:06;;;;;;;0.40;0.40;;;14.80;92.30;;;;;;5053462;28;20197;-66
2022/12/24 11:09:57;;;;;;;0.40;0.40;;;14.70;92.40;;;;;;5053959;28;20717;-66
2022/12/24 11:12:48;;;;;;;0.40;0.40;;;14.70;92.20;;;;;;5053476;28;20319;-66
2022/12/24 11:16:04;;;;;;;0.40;0.40;;;14.80;92.30;;;;;;5052905;28;20620;-65
2022/12/24 11:18:55;;;;;;;0.40;0.40;;;14.80;92.20;;;;;;5053489;28;20202;-65
2022/12/24 11:21:43;;;;;;;0.40;0.40;;;14.80;92.20;;;;;;5053200;28;20699;-66
2022/12/24 11:24:34;;;;;;;0.40;0.40;;;14.80;92.20;;;;;;5053002;28;20304;-66
2022/12/24 11:27:29;;;;;;;0.40;0.40;;;14.80;92.20;;;;;;5053145;28;20559;-65
2022/12/24 11:30:29;;;;;;;0.40;0.40;;;14.80;92.20;;;;;;5052772;28;20334;-66
2022/12/24 11:33:22;;;;;;;0.93;0.67;;;14.90;92.40;;;;;;5053174;28;20201;-66
2022/12/24 11:36:13;;;;;;;0.40;0.40;;;14.90;92.30;;;;;;5053404;28;20280;-66
2022/12/24 11:39:01;;;;;;;0.40;0.40;;;14.90;92.40;;;;;;5052450;28;20710;-65
2022/12/24 11:41:50;;;;;;;0.40;0.40;;;14.90;92.50;;;;;;5052715;28;20221;-66
2022/12/24 11:44:48;;;;;;;0.40;0.40;;;14.90;92.30;;;;;;5052501;28;20299;-66
2022/12/24 11:47:39;;;;;;;0.40;0.40;;;14.90;92.20;;;;;;5052617;28;20216;-66
2022/12/24 11:50:30;;;;;;;0.40;0.40;;;15.00;92.40;;;;;;5052577;28;20229;-66
2022/12/24 11:53:23;;;;;;;0.40;0.40;;;14.90;92.30;;;;;;5052197;28;20205;-65
2022/12/24 11:56:20;;;;;;;0.40;0.40;;;14.90;92.30;;;;;;5052751;28;20233;-66
2022/12/24 11:59:17;;;;;;;0.40;0.40;;;15.00;92.20;;;;;;5051914;28;20286;-65
2022/12/24 12:02:16;;;;;;;0.40;0.40;;;15.00;92.10;;;;;;5052410;28;20201;-65
2022/12/24 12:05:09;;;;;;;0.40;0.40;;;15.10;92.10;;;;;;5052887;28;20228;-66
2022/12/24 12:08:07;;;;;;;0.40;0.40;;;15.00;92.30;;;;;;5052769;28;20366;-65
2022/12/24 12:10:57;;;;;;;0.40;0.40;;;15.00;92.20;;;;;;5052092;28;20251;-66
2022/12/24 12:13:47;;;;;;;0.40;0.40;;;15.00;92.00;;;;;;5052335;28;20236;-66
2022/12/24 12:19:45;;;;;;;0.40;0.40;;;15.00;92.10;;;;;;5090679;28;21117;-64
2022/12/24 12:22:41;;;;;;;0.40;0.40;;;15.00;92.20;;;;;;5088868;28;20277;-66
2022/12/24 12:25:41;;;;;;;0.40;0.40;;;15.00;92.20;;;;;;5125735;28;20307;-65
2022/12/24 12:28:36;;;;;;;0.40;0.40;;;15.00;92.20;;;;;;5129451;28;20248;-66
2022/12/24 12:31:29;;;;;;;0.40;0.40;;;15.00;92.30;;;;;;5129420;28;20248;-66
2022/12/24 12:34:20;;;;;;;0.40;0.40;;;15.00;92.20;;;;;;5130157;28;20218;-66
2022/12/24 12:37:14;;;;;;;0.40;0.40;;;15.00;92.20;;;;;;5129630;28;20202;-66
2022/12/24 12:40:02;;;;;;;0.40;0.40;;;15.00;92.40;;;;;;5128996;28;20207;-66
2022/12/24 12:42:57;;;;;;;0.40;0.40;;;14.90;92.40;;;;;;5129784;28;20574;-66
2022/12/24 12:45:52;;;;;;;0.40;0.40;;;15.00;92.30;;;;;;5128478;28;20219;-66
2022/12/24 12:49:04;;;;;;;0.40;0.40;;;15.00;92.50;;;;;;5129682;28;20226;-66
2022/12/24 12:52:02;;;;;;;0.40;0.40;;;15.00;92.50;;;;;;5128927;28;20284;-66
2022/12/24 12:55:10;;;;;;;0.40;0.40;;;15.00;92.40;;;;;;5129555;28;20219;-66
2022/12/24 12:58:02;;;;;;;0.40;0.40;;;15.00;92.40;;;;;;5148925;27;20301;-66
2022/12/24 13:00:55;;;;;;;0.40;0.40;;;15.00;92.40;;;;;;5149191;27;20234;-66
2022/12/24 13:04:10;;;;;;;0.40;0.40;;;15.00;92.30;;;;;;5148262;27;20194;-66
2022/12/24 13:07:19;;;;;;;0.40;0.40;;;15.00;92.50;;;;;;5148614;27;20198;-66
2022/12/24 13:10:33;;;;;;;0.40;0.40;;;15.00;92.40;;;;;;5148224;27;20682;-66
2022/12/24 13:13:46;;;;;;;0.40;0.40;;;15.00;92.40;;;;;;5118740;27;20812;-66
2022/12/24 13:16:56;;;;;;;0.40;0.40;;;15.00;92.40;;;;;;5148532;27;20205;-66
2022/12/24 13:20:01;;;;;;;0.40;0.40;;;15.00;92.30;;;;;;5147965;27;20190;-66
2022/12/24 13:22:53;;;;;;;0.40;0.40;;;15.00;92.30;;;;;;5148527;27;20274;-66
2022/12/24 13:25:45;;;;;;;0.40;0.40;;;15.00;92.50;;;;;;5147690;27;20246;-66
2022/12/24 13:28:37;;;;;;;0.40;0.40;;;15.00;92.30;;;;;;5148220;27;20295;-66
2022/12/24 13:31:29;;;;;;;0.40;0.40;;;15.00;92.30;;;;;;5134493;27;20194;-64
2022/12/24 13:34:35;;;;;;;0.40;0.40;;;15.00;92.30;;;;;;5133953;27;20219;-66
2022/12/24 13:37:32;;;;;;;0.40;0.40;;;15.00;92.30;;;;;;5134288;27;20198;-66
2022/12/24 13:40:23;;;;;;;0.50;0.50;;;14.80;92.20;;;;;;5132389;27;20228;-66
2022/12/24 13:43:13;;;;;;;0.40;0.40;;;15.00;92.30;;;;;;5134404;27;20324;-66
2022/12/24 13:46:02;;;;;;;0.50;0.50;;;15.00;92.40;;;;;;5133995;27;20244;-66
2022/12/24 13:48:50;;;;;;;0.40;0.40;;;15.00;92.30;;;;;;5139235;27;20305;-66
2022/12/24 13:51:38;;;;;;;0.40;0.40;;;15.00;92.30;;;;;;5148114;27;20263;-67
2022/12/24 13:54:27;;;;;;;0.40;0.40;;;15.00;92.40;;;;;;5148645;27;20297;-64
2022/12/24 13:57:33;;;;;;;0.40;0.40;;;15.00;92.40;;;;;;5141856;27;20205;-64
2022/12/24 14:00:38;;;;;;;0.40;0.40;;;15.00;92.40;;;;;;5134081;27;20259;-67
2022/12/24 14:03:31;;;;;;;0.40;0.40;;;15.00;92.40;;;;;;5134199;27;20586;-67
2022/12/24 14:06:23;;;;;;;0.40;0.40;;;15.00;92.40;;;;;;5133200;27;20232;-67
2022/12/24 14:09:16;;;;;;;0.40;0.40;;;14.90;92.60;;;;;;5133077;27;20616;-66
2022/12/24 14:12:45;;;;;;;0.40;0.40;;;15.00;92.60;;;;;;5132565;27;20194;-64
2022/12/24 14:16:02;;;;;;;0.40;0.40;;;14.90;92.50;;;;;;5133082;27;20222;-65
2022/12/24 14:18:59;;;;;;;0.40;0.40;;;15.00;92.60;;;;;;5133724;27;20202;-64
2022/12/24 14:21:54;;;;;;;0.40;0.40;;;15.00;92.60;;;;;;5134401;27;20280;-65
2022/12/24 14:24:53;;;;;;;0.40;0.40;;;15.00;92.60;;;;;;5135227;27;20700;-66
2022/12/24 14:27:45;;;;;;;0.40;0.40;;;15.00;92.60;;;;;;5132447;27;20328;-67
2022/12/24 14:30:33;;;;;;;0.40;0.40;;;15.00;92.50;;;;;;5133012;27;20287;-66
2022/12/24 14:33:29;;;;;;;0.40;0.40;;;15.00;92.60;;;;;;5133526;27;20287;-67
2022/12/24 14:36:22;;;;;;;0.40;0.40;;;15.00;92.60;;;;;;5133361;27;20690;-66
2022/12/24 14:39:18;;;;;;;0.40;0.40;;;15.00;92.60;;;;;;5132666;27;20195;-66
2022/12/24 14:42:22;;;;;;;0.40;0.40;;;15.00;92.60;;;;;;5131071;27;20191;-66
2022/12/24 14:45:22;;;;;;;0.40;0.40;;;15.00;92.60;;;;;;5132681;27;20301;-67
2022/12/24 14:48:18;;;;;;;0.40;0.40;;;15.00;92.70;;;;;;5132923;27;20698;-67
2022/12/24 14:51:15;;;;;;;0.40;0.40;;;15.00;92.60;;;;;;5132135;27;20252;-66
2022/12/24 14:54:18;;;;;;;0.40;0.40;;;15.00;92.50;;;;;;5133165;27;20229;-66
2022/12/24 14:57:21;;;;;;;0.40;0.40;;;15.00;92.70;;;;;;5131321;27;20199;-66
2022/12/24 15:00:20;;;;;;;0.40;0.40;;;15.00;92.60;;;;;;5132824;27;20416;-64
2022/12/24 15:03:13;;;;;;;0.40;0.40;;;15.00;92.80;;;;;;5133064;27;20255;-66
2022/12/24 15:06:05;;;;;;;0.40;0.40;;;14.90;92.50;;;;;;5131397;27;20195;-66